logo
Search for airport 
image banner adimage banner adimage banner ad
image banner ad

YMLT - Launceston

Located in Launceston, Australia

ICAO - YMLT, IATA - LST

Data provided by Airmate  

General information

Coordinates: S41°32'43" E147°12'51"
Elevation is 562 feet MSL.
 
View others Airports in Tasmania

Operational data

Special qualification required
Current time UTC:
Current local time:
Weather
METAR: YMLT 270400Z AUTO 34015KT 9999 // NCD 15/07 Q1018 RF00.0/000.0
TAF: TAF AMD YMLT 262318Z 2700/2800 34010KT 9999 SCT008 FM270200 32012KT CAVOK FM272200 34012KT 9999 SCT010
View NOTAMs / SUP AIP / TFR affecting this airport [VIEW]
Communications frequencies: [VIEW]

Runways:

RWY identifierQFULength (ft)Width (ft)SurfaceLDA (ft)
14R147°6499148ASP
32L327°6499148ASP

Airport contact information

Address: Launceston Australia

Other aviation service providers

Aviation club (not for profit)

Tasmanian Aero Club

Tasmanian Aero Club

Satellite view of YMLT